createdAt,value
2022-09-01T00:00:49.316Z,87.65
2022-09-01T00:05:55.226Z,89.02
2022-09-01T00:10:56.603Z,90.17
2022-09-01T00:15:58.037Z,90.88
2022-09-01T00:20:59.750Z,91.62
2022-09-01T00:26:01.110Z,92.01
2022-09-01T00:31:03.020Z,92.68
2022-09-01T00:36:05.448Z,92.22
2022-09-01T00:41:07.451Z,92.25
2022-09-01T00:46:10.776Z,92.42
2022-09-01T00:51:12.900Z,93.31
2022-09-01T00:56:14.490Z,93.11
2022-09-01T01:01:16.091Z,93.18
2022-09-01T01:06:20.042Z,94.62
2022-09-01T01:11:21.503Z,94.52
2022-09-01T01:16:25.166Z,95.20
2022-09-01T01:21:47.972Z,95.26
2022-09-01T01:26:49.715Z,95.92
2022-09-01T01:31:53.933Z,96.34
2022-09-01T01:36:59.816Z,96.85
2022-09-01T01:42:01.965Z,97.51
2022-09-01T01:47:08.306Z,98.02
2022-09-01T01:52:12.026Z,97.93
2022-09-01T01:57:17.818Z,98.28
2022-09-01T02:02:19.196Z,98.67
2022-09-01T02:07:20.554Z,99.95
2022-09-01T02:12:25.094Z,99.83
2022-09-01T02:17:27.401Z,99.70
2022-09-01T02:22:28.780Z,100.00
2022-09-01T02:27:30.115Z,100.00
2022-09-01T02:32:32.071Z,100.00
2022-09-01T02:37:33.892Z,100.00
2022-09-01T02:42:35.434Z,100.00
2022-09-01T02:47:36.771Z,100.00
2022-09-01T02:52:40.436Z,100.00
2022-09-01T02:57:41.780Z,100.00
2022-09-01T03:02:43.120Z,100.00
2022-09-01T03:07:44.672Z,100.00
2022-09-01T03:12:46.012Z,100.00
2022-09-01T03:17:49.399Z,100.00
2022-09-01T03:22:51.831Z,100.00
2022-09-01T03:27:53.223Z,100.00
2022-09-01T03:32:54.574Z,100.00
2022-09-01T03:37:59.014Z,100.00
2022-09-01T03:43:01.243Z,100.00
2022-09-01T03:48:08.917Z,100.00
2022-09-01T03:53:11.474Z,100.00
2022-09-01T03:58:14.657Z,100.00
2022-09-01T04:03:28.841Z,100.00
2022-09-01T04:08:33.460Z,100.00
2022-09-01T04:13:36.350Z,100.00
2022-09-01T04:18:40.054Z,100.00
2022-09-01T04:23:42.591Z,100.00
2022-09-01T04:28:48.296Z,100.00
2022-09-01T04:33:52.698Z,100.00
2022-09-01T04:38:56.283Z,100.00
2022-09-01T04:43:58.845Z,100.00
2022-09-01T04:49:01.211Z,100.00
2022-09-01T04:54:03.635Z,100.00
2022-09-01T04:59:07.090Z,100.00
2022-09-01T05:04:14.385Z,100.00
2022-09-01T05:09:17.391Z,100.00
2022-09-01T05:14:20.530Z,100.00
2022-09-01T05:19:24.762Z,100.00
2022-09-01T05:24:30.374Z,100.00
2022-09-01T05:29:31.859Z,100.00
2022-09-01T05:34:36.396Z,100.00
2022-09-01T05:39:38.203Z,100.00
2022-09-01T05:44:44.228Z,100.00
2022-09-01T05:49:45.809Z,100.00
2022-09-01T05:54:47.987Z,99.03
2022-09-01T05:59:54.086Z,97.88
2022-09-01T06:04:57.236Z,96.09
2022-09-01T06:09:59.980Z,95.13
2022-09-01T06:15:01.474Z,93.75
2022-09-01T06:20:10.642Z,79.43
2022-09-01T06:25:12.423Z,67.78
2022-09-01T06:30:20.166Z,66.47
2022-09-01T06:35:29.401Z,61.30
2022-09-01T06:40:30.856Z,64.36
2022-09-01T06:45:32.710Z,60.58
2022-09-01T06:55:57.584Z,57.04
2022-09-01T07:00:58.981Z,59.25
2022-09-01T07:06:02.379Z,51.22
2022-09-01T07:12:08.102Z,49.56
2022-09-01T07:16:32.586Z,50.42
2022-09-01T07:22:07.046Z,52.90
2022-09-01T07:27:09.401Z,50.08
2022-09-01T07:48:06.674Z,39.42
2022-09-01T07:53:12.515Z,40.04
2022-09-01T07:58:14.176Z,42.90
2022-09-01T08:03:16.506Z,36.19
2022-09-01T08:08:19.358Z,33.05
2022-09-01T08:13:22.183Z,34.48
2022-09-01T08:18:23.835Z,37.72
2022-09-01T08:23:27.206Z,35.15
2022-09-01T08:28:28.771Z,32.01
2022-09-01T08:33:31.103Z,34.00
2022-09-01T08:38:32.487Z,35.05
2022-09-01T08:43:52.368Z,35.21
2022-09-01T08:54:30.009Z,37.86
2022-09-01T08:59:33.465Z,37.69
2022-09-01T09:04:59.815Z,32.07
2022-09-01T09:10:12.170Z,33.91
2022-09-01T09:15:23.597Z,31.29
2022-09-01T09:20:28.032Z,32.96
2022-09-01T09:25:31.063Z,30.97
2022-09-01T09:30:33.086Z,30.20
2022-09-01T09:35:40.336Z,28.95
2022-09-01T09:41:15.974Z,30.19
2022-09-01T09:46:24.617Z,29.40
2022-09-01T09:51:28.940Z,29.13
2022-09-01T09:56:30.575Z,29.94
2022-09-01T10:01:34.511Z,32.30
2022-09-01T10:06:46.840Z,33.72
2022-09-01T10:11:52.327Z,34.77
2022-09-01T10:16:56.760Z,32.02
2022-09-01T10:21:58.138Z,37.19
2022-09-01T10:27:11.311Z,32.08
2022-09-01T10:32:34.954Z,33.53
2022-09-01T10:37:39.045Z,32.67
2022-09-01T10:42:45.342Z,39.17
2022-09-01T10:47:47.629Z,37.43
2022-09-01T10:52:50.470Z,33.89
2022-09-01T10:58:07.827Z,31.72
2022-09-01T11:03:42.043Z,36.31
2022-09-01T11:08:58.261Z,34.64
2022-09-01T11:14:00.227Z,32.75
2022-09-01T11:19:21.626Z,31.66
2022-09-01T11:24:52.036Z,31.95
2022-09-01T11:30:07.507Z,32.42
2022-09-01T11:35:17.203Z,31.25
2022-09-01T11:40:24.326Z,34.37
2022-09-01T11:45:32.007Z,36.06
2022-09-01T11:50:38.135Z,38.37
2022-09-01T11:55:43.898Z,34.67
2022-09-01T12:00:45.296Z,35.63
2022-09-01T12:05:49.392Z,35.06
2022-09-01T12:10:50.963Z,33.64
2022-09-01T12:16:18.320Z,35.10
2022-09-01T12:21:23.184Z,35.69
2022-09-01T12:26:29.736Z,38.07
2022-09-01T12:31:31.207Z,38.40
2022-09-01T12:36:36.698Z,38.84
2022-09-01T12:41:39.852Z,35.39
2022-09-01T12:46:44.949Z,34.04
2022-09-01T12:51:48.531Z,34.67
2022-09-01T12:56:51.168Z,35.13
2022-09-01T13:01:52.776Z,34.38
2022-09-01T13:06:55.448Z,35.35
2022-09-01T13:12:16.015Z,34.07
2022-09-01T13:17:17.723Z,33.28
2022-09-01T13:22:19.078Z,33.27
2022-09-01T13:27:22.107Z,31.86
2022-09-01T13:32:24.656Z,32.89
2022-09-01T13:37:26.087Z,33.77
2022-09-01T13:42:28.658Z,33.08
2022-09-01T13:47:31.011Z,33.07
2022-09-01T13:52:33.017Z,35.08
2022-09-01T13:57:36.060Z,34.55
2022-09-01T14:02:42.957Z,33.69
2022-09-01T14:07:44.484Z,34.22
2022-09-01T14:12:46.551Z,33.36
2022-09-01T14:17:49.399Z,32.77
2022-09-01T14:22:51.513Z,33.85
2022-09-01T14:27:53.369Z,33.53
2022-09-01T14:32:54.845Z,33.80
2022-09-01T14:37:56.286Z,33.65
2022-09-01T14:42:57.639Z,33.73
2022-09-01T14:48:00.697Z,33.85
2022-09-01T14:53:02.617Z,35.42
2022-09-01T14:58:04.363Z,35.18
2022-09-01T15:03:05.746Z,32.90
2022-09-01T15:08:08.099Z,33.60
2022-09-01T15:13:09.523Z,32.85
2022-09-01T15:18:10.972Z,31.96
2022-09-01T15:23:18.106Z,31.58
2022-09-01T15:28:19.711Z,31.91
2022-09-01T15:33:21.201Z,31.25
2022-09-01T15:38:26.061Z,32.54
2022-09-01T15:43:30.373Z,32.71
2022-09-01T15:48:31.785Z,32.60
2022-09-01T15:53:33.117Z,33.67
2022-09-01T15:58:59.578Z,32.54
2022-09-01T16:03:56.517Z,31.94
2022-09-01T16:08:57.938Z,32.36
2022-09-01T16:14:00.120Z,33.12
2022-09-01T16:19:20.352Z,33.33
2022-09-01T16:24:22.356Z,33.83
2022-09-01T16:29:53.099Z,34.28
2022-09-01T16:34:54.463Z,34.44
2022-09-01T16:40:04.010Z,34.66
2022-09-01T16:45:26.078Z,36.85
2022-09-01T16:50:42.921Z,37.96
2022-09-01T17:00:57.824Z,38.71
2022-09-01T17:06:13.616Z,37.69
2022-09-01T17:11:25.752Z,37.32
2022-09-01T17:16:42.146Z,37.82
2022-09-01T17:21:49.433Z,38.39
2022-09-01T17:26:51.607Z,38.90
2022-09-01T17:32:02.679Z,39.68
2022-09-01T17:37:14.036Z,41.09
2022-09-01T17:42:36.588Z,41.08
2022-09-01T17:47:44.578Z,43.41
2022-09-01T17:52:52.878Z,46.09
2022-09-01T17:58:05.902Z,46.87
2022-09-01T18:03:19.069Z,48.23
2022-09-01T18:08:35.835Z,49.21
2022-09-01T18:13:58.914Z,49.77
2022-09-01T18:19:05.589Z,50.77
2022-09-01T18:24:18.149Z,51.56
2022-09-01T18:29:20.088Z,52.86
2022-09-01T18:34:22.768Z,53.38
2022-09-01T18:39:24.122Z,53.99
2022-09-01T18:44:28.220Z,54.76
2022-09-01T18:49:39.564Z,55.00
2022-09-01T18:54:47.079Z,56.19
2022-09-01T18:59:54.711Z,57.05
2022-09-01T19:04:58.509Z,57.51
2022-09-01T19:10:05.066Z,57.70
2022-09-01T19:15:11.622Z,58.12
2022-09-01T19:20:17.099Z,58.14
2022-09-01T19:25:36.631Z,59.21
2022-09-01T19:30:48.112Z,58.42
2022-09-01T19:35:51.051Z,59.62
2022-09-01T19:40:53.655Z,60.39
2022-09-01T19:46:04.673Z,60.76
2022-09-01T19:51:14.886Z,61.77
2022-09-01T19:56:19.180Z,62.55
2022-09-01T20:01:36.654Z,63.27
2022-09-01T20:06:42.553Z,63.51
2022-09-01T20:11:47.622Z,64.53
2022-09-01T20:16:50.845Z,65.50
2022-09-01T20:21:52.205Z,64.89
2022-09-01T20:27:00.131Z,64.73
2022-09-01T20:32:02.003Z,64.77
2022-09-01T20:37:10.277Z,64.19
2022-09-01T20:42:19.767Z,65.25
2022-09-01T20:47:24.547Z,66.04
2022-09-01T20:52:36.347Z,64.43
2022-09-01T20:57:44.492Z,64.43
2022-09-01T21:02:52.709Z,64.40
2022-09-01T21:08:14.385Z,64.51
2022-09-01T21:13:27.778Z,64.58
2022-09-01T21:18:34.928Z,63.76
2022-09-01T21:23:36.339Z,63.97
2022-09-01T21:28:37.868Z,63.50
2022-09-01T21:33:39.229Z,61.53
2022-09-01T21:38:40.675Z,63.07
2022-09-01T21:43:43.843Z,57.71
2022-09-01T21:48:45.269Z,51.88
2022-09-01T21:53:46.634Z,49.59
2022-09-01T21:58:49.996Z,48.04
2022-09-01T22:03:51.450Z,45.94
2022-09-01T22:08:54.155Z,45.24
2022-09-01T22:13:57.087Z,44.60
2022-09-01T22:18:59.301Z,44.89
2022-09-01T22:24:01.689Z,44.50
2022-09-01T22:29:05.167Z,44.36
2022-09-01T22:34:07.213Z,44.98
2022-09-01T22:39:09.578Z,44.65
2022-09-01T22:44:11.090Z,44.36
2022-09-01T22:49:12.491Z,44.74
2022-09-01T22:54:14.156Z,44.68
2022-09-01T22:59:16.151Z,44.97
2022-09-01T23:04:18.233Z,44.53
2022-09-01T23:09:20.181Z,44.93
2022-09-01T23:14:21.528Z,44.91
2022-09-01T23:19:23.487Z,45.53
2022-09-01T23:24:25.210Z,45.61
2022-09-01T23:29:26.548Z,46.76
2022-09-01T23:34:27.917Z,47.02
2022-09-01T23:39:29.301Z,48.57
2022-09-01T23:44:30.953Z,49.45
2022-09-01T23:49:32.302Z,50.02
2022-09-01T23:54:34.080Z,50.24
2022-09-01T23:59:35.429Z,50.28
